Time;durP1;ratioP1;P1;durP2;ratioP2;P2;SDS_P1;SDS_P2;PMS_P1;PMS_P2;Temp;Humidity;BMP_temperature;BMP_pressure;BME280_temperature;BME280_humidity;BME280_pressure;Samples;Min_cycle;Max_cycle;Signal;HPM_P1;HPM_P2
2022/12/23 00:01:49;;;;;;;13.63;8.93;;;7.50;99.90;;;;;;5066680;28;20225;-73
2022/12/23 00:04:19;;;;;;;17.20;9.53;;;7.50;99.90;;;;;;5068901;28;20205;-73
2022/12/23 00:06:48;;;;;;;15.50;9.20;;;7.40;99.90;;;;;;5069939;28;20254;-73
2022/12/23 00:09:17;;;;;;;12.23;9.70;;;7.40;99.90;;;;;;5070249;27;20228;-73
2022/12/23 00:15:04;;;;;;;11.47;8.80;;;7.40;99.90;;;;;;5070290;28;20221;-74
2022/12/23 00:17:28;;;;;;;15.20;8.70;;;7.30;99.90;;;;;;5063624;27;20246;-72
2022/12/23 00:19:59;;;;;;;13.57;9.03;;;7.20;99.90;;;;;;5050755;28;20232;-73
2022/12/23 00:25:11;;;;;;;16.07;8.93;;;7.20;99.90;;;;;;5051757;27;20559;-73
2022/12/23 00:27:40;;;;;;;11.40;8.03;;;7.30;99.90;;;;;;5050553;27;20292;-73
2022/12/23 00:30:11;;;;;;;10.33;8.57;;;7.30;99.90;;;;;;5050669;27;20189;-74
2022/12/23 00:32:39;;;;;;;13.57;9.43;;;7.40;99.90;;;;;;5050473;28;20211;-73
2022/12/23 00:35:10;;;;;;;12.57;9.10;;;7.40;99.90;;;;;;5050408;28;20616;-73
2022/12/23 00:37:39;;;;;;;13.10;8.60;;;7.30;99.90;;;;;;5049597;28;20210;-73
2022/12/23 00:42:58;;;;;;;13.60;9.73;;;7.40;99.90;;;;;;5031842;27;20676;-74
2022/12/23 00:45:27;;;;;;;13.87;9.97;;;7.40;99.90;;;;;;5029763;28;20215;-74
2022/12/23 00:50:44;;;;;;;11.43;8.73;;;7.40;99.90;;;;;;5049563;28;20213;-74
2022/12/23 00:53:13;;;;;;;15.70;9.40;;;7.40;99.90;;;;;;5049534;28;20201;-73
2022/12/23 00:55:41;;;;;;;16.50;10.30;;;7.50;99.90;;;;;;5049317;28;20190;-73
2022/12/23 00:58:10;;;;;;;17.53;9.47;;;7.50;99.90;;;;;;5049553;28;20612;-73
2022/12/23 01:06:14;;;;;;;15.87;10.37;;;7.50;99.90;;;;;;5049261;27;20695;-73
2022/12/23 01:08:43;;;;;;;20.50;9.97;;;7.40;99.90;;;;;;5049121;28;20293;-72
2022/12/23 01:11:13;;;;;;;17.83;10.30;;;7.30;99.90;;;;;;5049149;27;20190;-73
2022/12/23 01:13:41;;;;;;;17.13;10.87;;;7.30;99.90;;;;;;5053389;27;20233;-73
2022/12/23 01:16:11;;;;;;;18.27;11.93;;;7.40;99.90;;;;;;5115145;27;20462;-72
2022/12/23 01:18:45;;;;;;;18.40;10.47;;;7.50;99.90;;;;;;5154467;27;20196;-74
2022/12/23 01:21:15;;;;;;;16.53;10.40;;;7.50;99.90;;;;;;5154573;27;20252;-73
2022/12/23 01:23:44;;;;;;;16.73;9.73;;;7.50;99.90;;;;;;5153957;27;20202;-73
2022/12/23 01:26:13;;;;;;;16.73;9.83;;;7.50;99.90;;;;;;5153909;27;20218;-73
2022/12/23 01:28:42;;;;;;;18.13;10.67;;;7.40;99.90;;;;;;5153494;27;20529;-73
2022/12/23 01:31:11;;;;;;;18.47;10.53;;;7.40;99.90;;;;;;5153700;27;20198;-73
2022/12/23 01:33:40;;;;;;;15.53;11.13;;;7.40;99.90;;;;;;5153594;27;20194;-73
2022/12/23 01:36:10;;;;;;;18.67;11.10;;;7.40;99.90;;;;;;5153667;27;20695;-73
2022/12/23 01:38:40;;;;;;;23.27;11.30;;;7.40;99.90;;;;;;5153273;27;20190;-73
2022/12/23 01:42:42;;;;;;;15.00;10.90;;;7.50;99.90;;;;;;5153591;27;20663;-73
2022/12/23 01:43:59;;;;;;;17.80;11.03;;;7.50;99.90;;;;;;5153459;27;20198;-73
2022/12/23 01:46:27;;;;;;;18.37;11.07;;;7.50;99.90;;;;;;5143314;27;20218;-73
2022/12/23 01:48:57;;;;;;;19.60;11.87;;;7.40;99.90;;;;;;5048277;27;20198;-73
2022/12/23 01:51:29;;;;;;;15.03;10.97;;;7.40;99.90;;;;;;5048663;28;20563;-73
2022/12/23 01:54:01;;;;;;;17.90;11.67;;;7.40;99.90;;;;;;5054090;27;20213;-74
2022/12/23 01:56:34;;;;;;;16.00;10.93;;;7.40;99.90;;;;;;5149935;27;20675;-74
2022/12/23 01:59:05;;;;;;;18.17;11.67;;;7.50;99.90;;;;;;5153761;27;20612;-74
2022/12/23 02:04:25;;;;;;;19.13;11.43;;;7.50;99.90;;;;;;5153043;27;20205;-74
2022/12/23 02:09:42;;;;;;;18.37;11.50;;;7.40;99.90;;;;;;5152735;27;20198;-74
2022/12/23 02:12:34;;;;;;;14.33;9.97;;;7.50;99.90;;;;;;5152939;27;20202;-74
2022/12/23 02:18:27;;;;;;;15.50;9.67;;;7.50;99.90;;;;;;5088712;28;20831;-74
2022/12/23 02:21:13;;;;;;;14.30;10.40;;;7.50;99.90;;;;;;5088877;28;20698;-73
2022/12/23 02:24:18;;;;;;;18.47;10.50;;;7.40;99.90;;;;;;5088854;28;20653;-74
2022/12/23 02:27:21;;;;;;;17.40;9.77;;;7.50;99.90;;;;;;4994638;28;20242;-74
2022/12/23 02:30:26;;;;;;;17.27;10.30;;;7.50;99.90;;;;;;4928828;29;20218;-73
2022/12/23 02:33:30;;;;;;;12.40;9.57;;;7.40;99.90;;;;;;4929201;29;20217;-73
2022/12/23 02:36:21;;;;;;;14.87;9.90;;;7.50;99.90;;;;;;4929785;29;20206;-73
2022/12/23 02:39:00;;;;;;;14.47;9.67;;;7.40;99.90;;;;;;4929376;28;20692;-73
2022/12/23 02:41:36;;;;;;;17.40;10.27;;;7.40;99.90;;;;;;4891684;29;20266;-72
2022/12/23 02:44:13;;;;;;;18.50;10.60;;;7.40;99.90;;;;;;4877554;28;20211;-73
2022/12/23 02:46:48;;;;;;;19.23;11.27;;;7.50;99.90;;;;;;4891451;28;20293;-74
2022/12/23 02:49:24;;;;;;;15.67;11.13;;;7.50;99.90;;;;;;4931884;29;20201;-74
2022/12/23 02:51:55;;;;;;;20.20;11.30;;;7.50;99.90;;;;;;4932250;29;20225;-73
2022/12/23 02:54:29;;;;;;;19.43;11.40;;;7.50;99.90;;;;;;4932124;29;20206;-73
2022/12/23 02:57:01;;;;;;;23.43;11.43;;;7.50;99.90;;;;;;4931775;29;20218;-73
2022/12/23 02:59:35;;;;;;;20.80;11.43;;;7.50;99.90;;;;;;4956172;28;20234;-75
2022/12/23 03:02:05;;;;;;;20.40;10.70;;;7.50;99.90;;;;;;4989972;28;20211;-73
2022/12/23 03:04:39;;;;;;;22.23;11.07;;;7.50;99.90;;;;;;4989212;28;20585;-74
2022/12/23 03:07:15;;;;;;;21.07;11.20;;;7.40;99.90;;;;;;4998901;28;20323;-74
2022/12/23 03:09:57;;;;;;;18.70;10.40;;;7.40;99.90;;;;;;5048233;28;20194;-74
2022/12/23 03:12:38;;;;;;;19.60;10.83;;;7.50;99.90;;;;;;5048270;28;20209;-73
2022/12/23 03:15:24;;;;;;;24.10;11.57;;;7.60;99.90;;;;;;5063484;28;20257;-74
2022/12/23 03:18:05;;;;;;;19.43;11.30;;;7.60;99.90;;;;;;5075943;27;20206;-72
2022/12/23 03:20:43;;;;;;;17.73;10.80;;;7.60;99.90;;;;;;5047031;27;20205;-73
2022/12/23 03:23:21;;;;;;;20.83;11.10;;;7.60;99.90;;;;;;5036717;28;20209;-73
2022/12/23 03:25:58;;;;;;;20.30;10.03;;;7.50;99.90;;;;;;5049585;27;20249;-72
2022/12/23 03:28:33;;;;;;;20.07;11.33;;;7.60;99.90;;;;;;5068197;27;20200;-74
2022/12/23 03:31:03;;;;;;;16.87;10.80;;;7.60;99.90;;;;;;5040225;28;20206;-72
2022/12/23 03:33:36;;;;;;;19.53;11.60;;;7.50;99.90;;;;;;5042661;28;20202;-74
2022/12/23 03:36:11;;;;;;;18.97;10.80;;;7.50;99.90;;;;;;5032549;28;20209;-72
2022/12/23 03:38:43;;;;;;;17.00;10.70;;;7.50;99.90;;;;;;5046592;28;20692;-74
2022/12/23 03:41:17;;;;;;;18.50;10.60;;;7.60;99.90;;;;;;5038462;28;20297;-74
2022/12/23 03:43:49;;;;;;;19.50;9.60;;;7.60;99.90;;;;;;5086400;28;20208;-74
2022/12/23 03:46:26;;;;;;;18.40;11.30;;;7.60;99.90;;;;;;5086091;28;20232;-74
2022/12/23 03:48:59;;;;;;;14.93;9.60;;;7.60;99.90;;;;;;5092486;28;20208;-71
2022/12/23 03:51:36;;;;;;;17.37;10.27;;;7.50;99.90;;;;;;5092493;28;20653;-73
2022/12/23 03:54:10;;;;;;;20.27;10.23;;;7.50;99.90;;;;;;5092355;28;20334;-73
2022/12/23 03:56:43;;;;;;;19.80;10.40;;;7.60;99.90;;;;;;5092199;28;20549;-72
2022/12/23 03:59:17;;;;;;;16.90;10.23;;;7.60;99.90;;;;;;5092321;28;20197;-75
2022/12/23 04:02:01;;;;;;;15.10;10.00;;;7.60;99.90;;;;;;5067483;28;20202;-76
2022/12/23 04:04:38;;;;;;;24.27;13.00;;;7.60;99.90;;;;;;5031218;28;20692;-75
2022/12/23 04:07:16;;;;;;;16.83;10.60;;;7.60;99.90;;;;;;5031297;28;20590;-76
2022/12/23 04:09:45;;;;;;;19.33;10.30;;;7.60;99.90;;;;;;5031249;28;20623;-76
2022/12/23 04:12:15;;;;;;;17.93;10.40;;;7.60;99.90;;;;;;5031267;28;20263;-75
2022/12/23 04:14:48;;;;;;;16.23;10.80;;;7.50;99.90;;;;;;5043131;27;20286;-76
2022/12/23 04:17:17;;;;;;;14.73;10.53;;;7.50;99.90;;;;;;5051149;28;20255;-75
2022/12/23 04:19:47;;;;;;;18.53;10.70;;;7.60;99.90;;;;;;5051045;28;20193;-76
2022/12/23 04:22:17;;;;;;;19.63;10.93;;;7.60;99.90;;;;;;5050991;28;20254;-74
2022/12/23 04:24:46;;;;;;;14.80;10.70;;;7.60;99.90;;;;;;5050170;28;20206;-75
2022/12/23 04:27:16;;;;;;;19.87;12.20;;;7.60;99.90;;;;;;5067292;28;20228;-74
2022/12/23 04:29:45;;;;;;;14.37;10.90;;;7.60;99.90;;;;;;5065020;28;20216;-74
2022/12/23 04:32:14;;;;;;;21.10;11.83;;;7.70;99.90;;;;;;5032284;28;20316;-74
2022/12/23 04:34:43;;;;;;;22.10;11.87;;;7.60;99.90;;;;;;5050635;28;20231;-73
2022/12/23 04:37:12;;;;;;;24.17;12.03;;;7.50;99.90;;;;;;5050666;28;20250;-74
2022/12/23 04:39:42;;;;;;;16.17;11.67;;;7.50;99.90;;;;;;5050652;28;20254;-74
2022/12/23 04:42:11;;;;;;;22.10;12.13;;;7.50;99.90;;;;;;5050623;28;20194;-74
2022/12/23 04:44:40;;;;;;;18.00;11.53;;;7.50;99.90;;;;;;5050669;28;20194;-73
2022/12/23 04:47:09;;;;;;;21.33;12.30;;;7.50;99.90;;;;;;5050573;28;20230;-73
2022/12/23 04:49:38;;;;;;;26.93;12.80;;;7.50;99.90;;;;;;5049298;28;20218;-75
2022/12/23 04:52:06;;;;;;;18.37;11.10;;;7.50;99.90;;;;;;5050377;28;20201;-74
2022/12/23 04:54:35;;;;;;;21.23;12.07;;;7.50;99.90;;;;;;5047079;27;20207;-75
2022/12/23 04:57:11;;;;;;;19.50;11.83;;;7.50;99.90;;;;;;5070269;28;20282;-75
2022/12/23 04:59:40;;;;;;;21.47;12.63;;;7.60;99.90;;;;;;5070287;28;20212;-75
2022/12/23 05:02:09;;;;;;;19.27;11.70;;;7.60;99.90;;;;;;5070513;27;20333;-73
2022/12/23 05:04:38;;;;;;;19.47;12.60;;;7.60;99.90;;;;;;5070348;28;20204;-73
2022/12/23 05:07:07;;;;;;;21.07;13.17;;;7.50;99.90;;;;;;5070206;28;20205;-74
2022/12/23 05:09:36;;;;;;;19.23;11.73;;;7.60;99.90;;;;;;5070166;28;20193;-73
2022/12/23 05:12:05;;;;;;;19.60;12.10;;;7.60;99.90;;;;;;5070161;28;20197;-73
2022/12/23 05:14:35;;;;;;;19.17;12.17;;;7.70;99.90;;;;;;5069981;28;20225;-74
2022/12/23 05:17:04;;;;;;;26.10;13.13;;;7.60;99.90;;;;;;5070161;28;20608;-75
2022/12/23 05:19:35;;;;;;;21.30;12.77;;;7.70;99.90;;;;;;5069988;28;20186;-74
2022/12/23 05:22:04;;;;;;;20.40;11.30;;;7.60;99.90;;;;;;5070136;27;20627;-75
2022/12/23 05:24:33;;;;;;;18.20;11.93;;;7.60;99.90;;;;;;5050224;28;20245;-73
2022/12/23 05:27:02;;;;;;;21.03;12.47;;;7.50;99.90;;;;;;5067494;28;20220;-73
2022/12/23 05:29:30;;;;;;;18.23;11.73;;;7.60;99.90;;;;;;4968987;28;20246;-73
2022/12/23 05:32:01;;;;;;;15.37;12.30;;;7.60;99.90;;;;;;4969077;28;20584;-74
2022/12/23 05:34:30;;;;;;;18.33;11.57;;;7.60;99.90;;;;;;4969148;28;20209;-74
2022/12/23 05:36:58;;;;;;;20.67;11.67;;;7.70;99.90;;;;;;4968974;28;20292;-74
2022/12/23 05:39:28;;;;;;;18.10;11.97;;;7.60;99.90;;;;;;4968970;28;20659;-73
2022/12/23 05:41:57;;;;;;;18.47;11.90;;;7.60;99.90;;;;;;4952682;28;20298;-75
2022/12/23 05:44:26;;;;;;;20.20;12.30;;;7.60;99.90;;;;;;4968036;28;20266;-75
2022/12/23 05:46:55;;;;;;;19.17;11.87;;;7.60;99.90;;;;;;4988271;28;20228;-74
2022/12/23 05:49:25;;;;;;;18.60;12.43;;;7.60;99.90;;;;;;5059507;28;20319;-74
2022/12/23 05:51:54;;;;;;;18.00;12.33;;;7.60;99.90;;;;;;5069718;27;20608;-74
2022/12/23 05:54:23;;;;;;;22.53;12.60;;;7.60;99.90;;;;;;5055972;27;20229;-74
2022/12/23 05:56:52;;;;;;;16.53;11.80;;;7.50;99.90;;;;;;5044235;28;20687;-74
2022/12/23 05:59:21;;;;;;;20.57;12.20;;;7.60;99.90;;;;;;5049994;28;20208;-74
2022/12/23 06:01:54;;;;;;;16.80;12.97;;;7.50;99.90;;;;;;5051224;28;20205;-74
2022/12/23 06:04:25;;;;;;;18.47;12.10;;;7.50;99.90;;;;;;5054008;28;20562;-75
2022/12/23 06:06:54;;;;;;;17.53;11.37;;;7.50;99.90;;;;;;5069122;28;20363;-74
2022/12/23 06:09:24;;;;;;;19.43;11.23;;;7.50;99.90;;;;;;5069162;28;20608;-74
2022/12/23 06:11:53;;;;;;;17.37;10.67;;;7.50;99.90;;;;;;5069245;27;20238;-74
2022/12/23 06:14:22;;;;;;;15.67;10.77;;;7.50;99.90;;;;;;5068976;27;20236;-74
2022/12/23 06:16:56;;;;;;;14.60;10.40;;;7.40;99.90;;;;;;5065944;28;20249;-75
2022/12/23 06:19:27;;;;;;;15.07;10.33;;;7.40;99.90;;;;;;5059801;28;20633;-74
2022/12/23 06:21:55;;;;;;;18.03;10.03;;;7.50;99.90;;;;;;5068944;28;20201;-76
2022/12/23 06:24:24;;;;;;;14.10;9.90;;;7.40;99.90;;;;;;5041126;28;20196;-76
2022/12/23 06:26:53;;;;;;;17.77;10.60;;;7.40;99.90;;;;;;5044386;28;20214;-74
2022/12/23 06:29:25;;;;;;;21.17;12.03;;;7.40;99.90;;;;;;5048804;28;20676;-74
2022/12/23 06:31:53;;;;;;;15.43;10.30;;;7.50;99.90;;;;;;5066299;28;20666;-74
2022/12/23 06:34:22;;;;;;;16.57;11.43;;;7.50;99.90;;;;;;5048797;28;20614;-76
2022/12/23 06:36:53;;;;;;;33.47;22.13;;;7.50;99.90;;;;;;5048982;28;20206;-74
2022/12/23 06:39:22;;;;;;;23.90;15.93;;;7.50;99.90;;;;;;5048439;28;20213;-75
2022/12/23 06:41:51;;;;;;;17.40;12.40;;;7.50;99.90;;;;;;5048706;28;20285;-74
2022/12/23 06:44:20;;;;;;;19.87;11.80;;;7.60;99.90;;;;;;5049013;28;20202;-74
2022/12/23 06:46:49;;;;;;;15.87;11.27;;;7.60;99.90;;;;;;5072277;28;20216;-74
2022/12/23 06:49:18;;;;;;;17.33;11.17;;;7.60;99.90;;;;;;5081363;28;20262;-73
2022/12/23 06:51:47;;;;;;;22.80;13.27;;;7.60;99.90;;;;;;5068714;28;20565;-74
2022/12/23 06:54:17;;;;;;;21.20;13.03;;;7.70;99.90;;;;;;5060435;27;20194;-74
2022/12/23 06:56:46;;;;;;;16.67;11.30;;;7.70;99.90;;;;;;5061862;28;20228;-75
2022/12/23 06:59:15;;;;;;;16.70;11.20;;;7.60;99.90;;;;;;5068487;28;20229;-74
2022/12/23 07:01:43;;;;;;;15.30;10.57;;;7.60;99.90;;;;;;5058256;28;20205;-75
2022/12/23 07:04:13;;;;;;;22.73;12.73;;;7.50;99.90;;;;;;5065129;28;20204;-73
2022/12/23 07:06:41;;;;;;;17.70;11.40;;;7.60;99.90;;;;;;5048739;28;20198;-72
2022/12/23 07:09:11;;;;;;;20.90;11.50;;;7.50;99.90;;;;;;5048518;28;20240;-75
2022/12/23 07:11:41;;;;;;;17.67;10.50;;;7.50;99.90;;;;;;5048541;28;20250;-74
2022/12/23 07:14:10;;;;;;;13.27;10.17;;;7.50;99.90;;;;;;5053145;27;20237;-73
2022/12/23 07:16:39;;;;;;;15.83;9.77;;;7.40;99.90;;;;;;5052142;28;20603;-75
2022/12/23 07:19:08;;;;;;;19.07;11.47;;;7.40;99.90;;;;;;5051832;28;20208;-73
2022/12/23 07:21:37;;;;;;;19.00;11.30;;;7.40;99.90;;;;;;5051790;28;20201;-73
2022/12/23 07:24:07;;;;;;;17.10;11.20;;;7.40;99.90;;;;;;5051629;28;20571;-73
2022/12/23 07:26:36;;;;;;;22.67;14.07;;;7.50;99.90;;;;;;5051797;28;20213;-74
2022/12/23 07:29:06;;;;;;;20.47;12.33;;;7.60;99.90;;;;;;5051726;28;20600;-74
2022/12/23 07:31:35;;;;;;;25.40;13.97;;;7.70;99.90;;;;;;5051706;28;20213;-74
2022/12/23 07:34:09;;;;;;;21.53;12.80;;;7.70;99.90;;;;;;5051630;28;20202;-74
2022/12/23 07:36:38;;;;;;;22.70;13.67;;;7.80;99.90;;;;;;5054819;28;20213;-74
2022/12/23 07:39:07;;;;;;;19.77;12.67;;;7.70;99.90;;;;;;5062962;28;20208;-74
2022/12/23 07:41:36;;;;;;;20.57;12.63;;;7.60;99.90;;;;;;5061447;28;20231;-74
2022/12/23 07:44:08;;;;;;;16.87;12.00;;;7.60;99.90;;;;;;5061187;28;20655;-74
2022/12/23 07:46:38;;;;;;;24.17;13.93;;;7.60;99.90;;;;;;5053541;28;20658;-74
2022/12/23 07:49:07;;;;;;;24.40;13.97;;;7.60;99.90;;;;;;5071013;28;20232;-75
2022/12/23 07:51:36;;;;;;;24.07;14.00;;;7.50;99.90;;;;;;5053347;28;20205;-75
2022/12/23 07:54:05;;;;;;;22.63;13.40;;;7.60;99.90;;;;;;5071149;28;20192;-74
2022/12/23 07:56:34;;;;;;;21.27;12.67;;;7.60;99.90;;;;;;5053388;28;20208;-74
2022/12/23 07:59:03;;;;;;;22.97;14.60;;;7.60;99.90;;;;;;5068744;27;20234;-74
2022/12/23 08:01:34;;;;;;;25.80;14.10;;;7.60;99.90;;;;;;5055068;28;20623;-74
2022/12/23 08:04:03;;;;;;;28.43;15.23;;;7.50;99.90;;;;;;5069979;28;20707;-75
2022/12/23 08:06:35;;;;;;;24.90;14.40;;;7.50;99.90;;;;;;5060736;28;20626;-74
2022/12/23 08:09:08;;;;;;;24.73;14.47;;;7.60;99.90;;;;;;5051601;28;20236;-75
2022/12/23 08:11:37;;;;;;;27.13;14.13;;;7.60;99.90;;;;;;5060656;28;20291;-75
2022/12/23 08:14:06;;;;;;;28.20;15.47;;;7.50;99.90;;;;;;5071467;27;20709;-74
2022/12/23 08:16:36;;;;;;;34.90;18.63;;;7.50;99.90;;;;;;5071437;28;20221;-75
2022/12/23 08:19:11;;;;;;;28.03;15.60;;;7.50;99.90;;;;;;5143145;27;20540;-77
2022/12/23 08:21:39;;;;;;;30.30;15.43;;;7.50;99.90;;;;;;5047811;27;20195;-73
2022/12/23 08:24:09;;;;;;;25.10;14.70;;;7.50;99.90;;;;;;5052334;27;20190;-72
2022/12/23 08:26:38;;;;;;;22.23;13.67;;;7.50;99.90;;;;;;5055239;27;20210;-73
2022/12/23 08:29:06;;;;;;;26.67;17.43;;;7.50;99.90;;;;;;5051265;28;20308;-76
2022/12/23 08:31:37;;;;;;;31.20;19.20;;;7.50;99.90;;;;;;5068530;28;20658;-75
2022/12/23 08:34:06;;;;;;;27.13;14.67;;;7.50;99.90;;;;;;5064739;27;20204;-74
2022/12/23 08:36:36;;;;;;;23.73;12.13;;;7.50;99.90;;;;;;5051131;27;20256;-72
2022/12/23 08:39:07;;;;;;;28.23;14.07;;;7.50;99.90;;;;;;5045136;28;20206;-75
2022/12/23 08:41:39;;;;;;;21.80;13.70;;;7.60;99.90;;;;;;5053865;27;20193;-73
2022/12/23 08:44:08;;;;;;;21.50;13.03;;;7.60;99.90;;;;;;5050586;27;20198;-76
2022/12/23 08:46:39;;;;;;;22.47;14.13;;;7.60;99.90;;;;;;5119911;27;20292;-78
2022/12/23 08:49:09;;;;;;;19.87;13.30;;;7.60;99.90;;;;;;5050159;28;20221;-75
2022/12/23 08:51:39;;;;;;;20.30;13.50;;;7.50;99.90;;;;;;5050951;28;20194;-76
2022/12/23 08:54:09;;;;;;;23.37;13.60;;;7.50;99.90;;;;;;5050503;28;20190;-75
2022/12/23 08:56:41;;;;;;;22.83;13.83;;;7.60;99.90;;;;;;5047028;28;20202;-74
2022/12/23 08:59:13;;;;;;;19.87;12.90;;;7.50;99.90;;;;;;5041928;28;20566;-75
2022/12/23 09:01:48;;;;;;;23.60;13.53;;;7.50;99.90;;;;;;5050129;27;20250;-74
2022/12/23 09:04:17;;;;;;;20.07;12.87;;;7.50;99.90;;;;;;5050189;28;20296;-74
2022/12/23 09:06:46;;;;;;;22.93;13.03;;;7.50;99.90;;;;;;5038231;27;20252;-74
2022/12/23 09:09:17;;;;;;;27.13;13.17;;;7.40;99.90;;;;;;5050915;27;20229;-73
2022/12/23 09:11:46;;;;;;;26.07;12.93;;;7.50;99.90;;;;;;5046324;28;20194;-75
2022/12/23 09:14:15;;;;;;;21.27;13.27;;;7.50;99.90;;;;;;5049445;27;20229;-73
2022/12/23 09:16:49;;;;;;;19.67;12.50;;;7.50;99.90;;;;;;5069640;28;20208;-73
2022/12/23 09:19:18;;;;;;;23.13;13.47;;;7.60;99.90;;;;;;5070222;28;20205;-73
2022/12/23 09:21:47;;;;;;;22.20;13.27;;;7.60;99.90;;;;;;5061800;27;20296;-75
2022/12/23 09:24:16;;;;;;;24.10;13.47;;;7.60;99.90;;;;;;5050033;28;20190;-74
2022/12/23 09:26:45;;;;;;;21.97;13.77;;;7.60;99.90;;;;;;5050009;28;20194;-76
2022/12/23 09:29:13;;;;;;;29.87;13.90;;;7.70;99.90;;;;;;5050496;28;20217;-76
2022/12/23 09:31:42;;;;;;;26.93;13.33;;;7.70;99.90;;;;;;5068891;28;20215;-74
2022/12/23 09:34:14;;;;;;;21.57;12.70;;;7.60;99.90;;;;;;5070000;28;20274;-76
2022/12/23 09:36:46;;;;;;;23.20;13.60;;;7.70;99.90;;;;;;5067896;28;20213;-75
2022/12/23 09:39:21;;;;;;;19.90;13.33;;;7.70;99.90;;;;;;5070506;28;20287;-76
2022/12/23 09:42:00;;;;;;;22.83;13.90;;;7.70;99.90;;;;;;5070111;28;20258;-77
2022/12/23 09:44:44;;;;;;;25.80;15.03;;;7.70;99.90;;;;;;5062439;28;20203;-77
2022/12/23 09:47:18;;;;;;;27.63;14.43;;;7.70;99.90;;;;;;5049329;28;20309;-76
2022/12/23 09:49:53;;;;;;;28.73;15.00;;;7.70;99.90;;;;;;5049945;28;20327;-74
2022/12/23 09:52:25;;;;;;;24.23;14.40;;;7.70;99.90;;;;;;5050186;28;20189;-74
2022/12/23 09:54:55;;;;;;;22.37;13.90;;;7.70;99.90;;;;;;5049537;28;20201;-74
2022/12/23 09:57:34;;;;;;;20.93;13.40;;;7.70;99.90;;;;;;5049701;28;20240;-75
2022/12/23 10:00:07;;;;;;;21.27;13.27;;;7.70;99.90;;;;;;5049483;28;20193;-74
2022/12/23 10:02:52;;;;;;;22.93;12.77;;;7.60;99.90;;;;;;5152891;27;20644;-74
2022/12/23 10:05:31;;;;;;;22.63;14.40;;;7.70;99.90;;;;;;5069500;28;20193;-77
2022/12/23 10:08:07;;;;;;;23.57;13.90;;;7.80;99.90;;;;;;5081177;27;20196;-74
2022/12/23 10:10:41;;;;;;;22.60;13.97;;;7.80;99.90;;;;;;5089874;28;20231;-74
2022/12/23 10:13:19;;;;;;;27.63;13.13;;;7.70;99.90;;;;;;5090031;28;20222;-73
2022/12/23 10:15:50;;;;;;;21.80;14.00;;;7.70;99.90;;;;;;5088949;28;20200;-73
2022/12/23 10:18:27;;;;;;;20.47;12.93;;;7.70;99.90;;;;;;5089735;28;20192;-74
2022/12/23 10:21:03;;;;;;;21.07;13.17;;;7.80;99.90;;;;;;5089569;28;20207;-75
2022/12/23 10:23:37;;;;;;;21.47;12.63;;;7.80;99.90;;;;;;5089802;28;20188;-75
2022/12/23 10:26:15;;;;;;;18.97;12.33;;;7.80;99.90;;;;;;5088825;28;20204;-75
2022/12/23 10:28:46;;;;;;;20.90;12.67;;;7.70;99.90;;;;;;5087988;28;20295;-75
2022/12/23 10:31:19;;;;;;;24.50;13.30;;;7.70;99.90;;;;;;5058752;28;20229;-76
2022/12/23 10:34:15;;;;;;;22.07;14.33;;;7.70;99.90;;;;;;5068479;28;20290;-74
2022/12/23 10:36:53;;;;;;;20.40;13.40;;;7.80;99.90;;;;;;5071443;28;20196;-74
2022/12/23 10:39:31;;;;;;;21.60;13.70;;;7.80;99.90;;;;;;5048362;28;20529;-74
2022/12/23 10:42:12;;;;;;;24.23;14.30;;;7.90;99.90;;;;;;5048780;28;20201;-74
2022/12/23 10:44:57;;;;;;;24.17;12.80;;;7.90;99.90;;;;;;5048351;28;20233;-76
2022/12/23 10:47:37;;;;;;;20.57;13.47;;;7.90;99.90;;;;;;5046780;28;20212;-76
2022/12/23 10:50:21;;;;;;;23.90;14.50;;;7.90;99.90;;;;;;5048385;28;20240;-74
2022/12/23 10:52:56;;;;;;;25.50;14.07;;;8.00;99.90;;;;;;5048483;28;20236;-74
2022/12/23 10:55:28;;;;;;;21.10;13.30;;;7.90;99.90;;;;;;5048316;28;20658;-74
2022/12/23 10:58:07;;;;;;;22.67;13.20;;;7.80;99.90;;;;;;5048157;28;20208;-74
2022/12/23 11:00:38;;;;;;;21.17;13.27;;;7.70;99.90;;;;;;5048448;28;20208;-75
2022/12/23 11:03:16;;;;;;;23.87;12.43;;;7.60;99.90;;;;;;5048308;28;20663;-75
2022/12/23 11:05:46;;;;;;;21.77;12.77;;;7.70;99.90;;;;;;5048281;28;20202;-75
2022/12/23 11:08:17;;;;;;;42.60;23.00;;;7.70;99.90;;;;;;5048652;28;20241;-75
2022/12/23 11:10:47;;;;;;;21.60;13.70;;;7.70;99.90;;;;;;5058975;28;20217;-75
2022/12/23 11:13:25;;;;;;;23.37;14.30;;;7.70;99.90;;;;;;5068957;27;20193;-74
2022/12/23 11:15:55;;;;;;;19.10;13.00;;;7.70;99.90;;;;;;5068380;28;20215;-74
2022/12/23 11:18:24;;;;;;;20.83;12.33;;;7.70;99.90;;;;;;5067858;28;20204;-74
2022/12/23 11:21:04;;;;;;;19.40;13.00;;;7.70;99.90;;;;;;5068162;28;20562;-75
2022/12/23 11:23:36;;;;;;;20.47;12.73;;;7.80;99.90;;;;;;5068046;28;20197;-74
2022/12/23 11:26:07;;;;;;;23.40;12.63;;;7.70;99.90;;;;;;5067568;28;20201;-76
2022/12/23 11:28:39;;;;;;;20.70;13.03;;;7.70;99.90;;;;;;5067886;27;20189;-74
2022/12/23 11:31:11;;;;;;;18.57;13.33;;;7.70;99.90;;;;;;5063421;28;20248;-76
2022/12/23 11:33:45;;;;;;;19.83;12.67;;;7.70;99.90;;;;;;5050461;28;20262;-74
2022/12/23 11:36:22;;;;;;;21.03;12.67;;;7.70;99.90;;;;;;5047795;28;20213;-77
2022/12/23 11:38:57;;;;;;;22.33;13.17;;;7.70;99.90;;;;;;5047644;28;20185;-74
2022/12/23 11:41:29;;;;;;;24.37;15.37;;;7.70;99.90;;;;;;5061713;28;20721;-75
2022/12/23 11:44:03;;;;;;;22.10;13.70;;;7.70;99.90;;;;;;5067736;28;20288;-74
2022/12/23 11:46:34;;;;;;;23.00;14.27;;;7.70;99.90;;;;;;5068288;28;20209;-75
2022/12/23 11:49:14;;;;;;;23.17;14.13;;;7.70;99.90;;;;;;5067514;28;20228;-74
2022/12/23 11:51:43;;;;;;;20.73;13.37;;;7.80;99.90;;;;;;5067677;28;20576;-73
2022/12/23 11:54:19;;;;;;;24.97;13.40;;;7.80;99.90;;;;;;5049529;28;20561;-74
2022/12/23 11:56:51;;;;;;;20.53;14.13;;;7.90;99.90;;;;;;5067834;28;20245;-75
2022/12/23 11:59:32;;;;;;;23.23;13.00;;;7.90;99.90;;;;;;5068520;28;20219;-74
2022/12/23 12:02:04;;;;;;;19.57;12.17;;;7.90;99.90;;;;;;5070985;28;20213;-75
2022/12/23 12:04:35;;;;;;;23.70;12.63;;;7.90;99.90;;;;;;5070991;28;20201;-77
2022/12/23 12:07:06;;;;;;;20.97;13.93;;;7.90;99.90;;;;;;5071078;28;20199;-74
2022/12/23 12:09:42;;;;;;;21.80;12.80;;;8.00;99.90;;;;;;5070934;28;20200;-76
2022/12/23 12:12:18;;;;;;;22.43;13.93;;;7.90;99.90;;;;;;5070658;28;20583;-74
2022/12/23 12:14:51;;;;;;;21.33;14.10;;;7.90;99.90;;;;;;5070726;27;20236;-74
2022/12/23 12:17:25;;;;;;;45.43;24.23;;;7.80;99.90;;;;;;5071147;27;20700;-75
2022/12/23 12:20:03;;;;;;;22.93;13.53;;;7.80;99.90;;;;;;5070917;28;20197;-75
2022/12/23 12:22:41;;;;;;;20.23;13.07;;;7.80;99.90;;;;;;5071103;28;20209;-75
2022/12/23 12:25:18;;;;;;;25.10;14.73;;;7.80;99.90;;;;;;5069939;27;20534;-75
2022/12/23 12:27:56;;;;;;;24.00;14.33;;;7.80;99.90;;;;;;5041766;28;20202;-74
2022/12/23 12:30:34;;;;;;;22.13;14.10;;;7.80;99.90;;;;;;5031165;28;20572;-75
2022/12/23 12:33:07;;;;;;;24.03;13.73;;;7.70;99.90;;;;;;5030846;28;20198;-77
2022/12/23 12:35:42;;;;;;;23.17;15.37;;;7.70;99.90;;;;;;5030695;28;20198;-77
2022/12/23 12:38:18;;;;;;;24.30;13.43;;;7.80;99.90;;;;;;5031100;28;20198;-76
2022/12/23 12:40:56;;;;;;;24.00;13.40;;;7.70;99.90;;;;;;5030750;28;20239;-77
2022/12/23 12:43:30;;;;;;;54.17;28.00;;;7.80;99.90;;;;;;5030823;28;20564;-77
2022/12/23 12:46:24;;;;;;;23.67;15.77;;;7.80;99.90;;;;;;5030689;28;20194;-77
2022/12/23 12:49:00;;;;;;;23.63;14.57;;;7.80;99.90;;;;;;5042040;28;20206;-75
2022/12/23 12:51:38;;;;;;;27.00;14.07;;;7.90;99.90;;;;;;5030975;28;20277;-74
2022/12/23 12:54:14;;;;;;;24.77;12.77;;;7.90;99.90;;;;;;5031392;28;20233;-75
2022/12/23 12:56:49;;;;;;;20.97;14.20;;;7.90;99.90;;;;;;5030936;28;20198;-74
2022/12/23 12:59:20;;;;;;;25.90;13.37;;;7.90;99.90;;;;;;5030695;28;20214;-73
2022/12/23 13:02:01;;;;;;;22.80;13.67;;;7.90;99.90;;;;;;5030611;28;20202;-74
2022/12/23 13:05:09;;;;;;;29.43;14.43;;;7.90;99.90;;;;;;5030615;28;20199;-73
2022/12/23 13:07:52;;;;;;;21.70;13.77;;;8.00;99.90;;;;;;5051169;28;20275;-75
2022/12/23 13:10:34;;;;;;;21.57;13.57;;;8.00;99.90;;;;;;5050709;28;20598;-74
2022/12/23 13:13:15;;;;;;;25.53;14.13;;;8.00;99.90;;;;;;5051897;28;20206;-76
2022/12/23 13:15:50;;;;;;;21.97;15.50;;;7.90;99.90;;;;;;5051734;28;20879;-79
2022/12/23 13:18:31;;;;;;;20.27;13.03;;;7.90;99.90;;;;;;5051597;28;20228;-82
2022/12/23 13:21:05;;;;;;;21.70;13.07;;;7.80;99.90;;;;;;5051330;28;20209;-85
2022/12/23 13:23:41;;;;;;;24.50;13.60;;;7.80;99.90;;;;;;5051429;28;20260;-83
2022/12/23 13:26:20;;;;;;;25.47;13.73;;;7.80;99.90;;;;;;5051375;28;20204;-85
2022/12/23 13:29:00;;;;;;;20.67;14.20;;;7.90;99.90;;;;;;5051292;28;20271;-77
2022/12/23 13:31:42;;;;;;;25.50;15.00;;;7.90;99.90;;;;;;5051227;28;20214;-76
2022/12/23 13:34:22;;;;;;;25.20;15.83;;;8.00;99.90;;;;;;5051078;28;20236;-78